Latest Weather Observations for Hobart

IDT60901

Issued at 6:51 am EST Saturday 7 May 2016 (issued every 10 minutes, with the page automatically refreshed every 10 minutes)

About weather observations | Map of Hobart area stations | Latest observations for Hobart area | Other Formats
Station Details ID: 094029 Name: HOBART (ELLERSLIE ROAD) Lat: -42.89 Lon: 147.33 Height: 50.5 m
Data from the previous 72 hours. | See also: Recent months at Hobart
Date/Time
EST
Tmp

°C
App
Tmp
°C
Dew
Point
°C
Rel
Hum
%
Delta-T

°C
Wind Press
QNH
hPa
Press
MSL
hPa
Rain
since
9 am
mm
Dir
 
Spd
km/h
Gust
km/h
Spd
kts
Gust
kts
07/06:30am 10.1 7.3 5.0 70 2.3 NNW 9 13 5 7 1015.9 1015.9 0.0
07/06:00am 10.4 6.8 4.9 69 2.5 NNW 13 17 7 9 1015.7 1015.7 0.0
07/05:30am 10.8 7.6 5.3 69 2.5 NNW 11 15 6 8 1015.6 1015.6 0.0
07/05:00am 10.7 7.6 5.5 70 2.4 NNW 11 13 6 7 1015.7 1015.7 0.0
07/04:30am 11.0 7.4 5.1 67 2.7 NNW 13 17 7 9 1015.4 1015.4 0.0
07/04:00am 10.5 7.7 5.2 70 2.4 NNW 9 11 5 6 1015.0 1015.0 0.0
07/03:30am 10.1 9.1 5.5 73 2.1 CALM 0 0 0 0 1014.8 1014.8 0.0
07/03:00am 10.8 8.4 5.1 68 2.6 N 7 11 4 6 1014.8 1014.8 0.0
07/02:30am 11.0 8.2 5.3 68 2.6 N 9 13 5 7 1014.8 1014.8 0.0
07/02:00am 11.6 8.8 5.3 65 2.9 NNW 9 17 5 9 1014.6 1014.6 0.0
07/01:30am 11.6 8.1 5.3 65 2.9 NNW 13 19 7 10 1014.7 1014.7 0.0
07/01:00am 11.6 7.6 5.1 64 3.0 NNW 15 20 8 11 1014.4 1014.4 0.0
07/12:30am 11.3 9.5 5.5 67 2.7 NW 4 9 2 5 1014.5 1014.5 0.0
07/12:00am 11.7 9.0 5.4 65 2.9 N 9 15 5 8 1014.4 1014.4 0.0
 
Date/Time
EST
Tmp

°C
App
Tmp
°C
Dew
Point
°C
Rel
Hum
%
Delta-T

°C
Wind Press
QNH
hPa
Press
MSL
hPa
Rain
since
9 am
mm
Dir
 
Spd
km/h
Gust
km/h
Spd
kts
Gust
kts
06/11:30pm 11.8 9.1 5.6 66 2.9 N 9 11 5 6 1014.4 1014.4 0.0
06/11:00pm 11.7 10.0 5.7 66 2.8 NNW 4 7 2 4 1014.4 1014.4 0.0
06/10:30pm 12.1 9.4 5.7 65 3.0 NNW 9 13 5 7 1014.5 1014.5 0.0
06/10:00pm 12.5 9.8 5.7 63 3.2 NNE 9 13 5 7 1014.0 1014.0 0.0
06/09:30pm 12.3 10.2 5.7 64 3.1 NNE 6 11 3 6 1014.3 1014.3 0.0
06/09:00pm 12.7 10.0 5.4 61 3.4 NNW 9 11 5 6 1014.0 1014.0 0.0
06/08:30pm 12.8 10.5 5.5 61 3.4 NNW 7 11 4 6 1013.7 1013.7 0.0
06/08:00pm 13.4 9.4 4.8 56 4.0 NNW 15 19 8 10 1013.2 1013.2 0.0
06/07:30pm 13.7 9.3 4.6 54 4.2 NNW 17 24 9 13 1012.8 1012.8 0.0
06/07:00pm 14.3 9.1 3.8 49 4.8 NNW 20 32 11 17 1012.5 1012.5 0.0
06/06:30pm 14.6 10.0 3.7 48 5.0 NNW 17 28 9 15 1012.2 1012.2 0.0
06/06:00pm 15.0 10.3 3.4 45 5.3 NW 17 28 9 15 1011.8 1011.8 0.0
06/05:30pm 15.4 10.4 3.4 44 5.5 NNW 19 30 10 16 1011.3 1011.3 0.0
06/05:00pm 15.6 11.8 4.0 46 5.4 NNW 13 22 7 12 1010.8 1010.8 0.0
06/04:30pm 15.9 11.8 4.4 46 5.4 NNW 15 26 8 14 1010.7 1010.7 0.0
06/04:00pm 16.1 12.4 6.5 53 4.7 WNW 15 26 8 14 1010.4 1010.4 0.0
06/03:30pm 16.7 10.2 4.7 45 5.7 NW 28 39 15 21 1009.7 1009.8 0.0
06/03:00pm 17.4 9.8 3.7 40 6.4 WNW 33 54 18 29 1009.2 1009.3 0.0
06/02:40pm 18.1 11.3 3.3 37 6.9 NW 28 48 15 26 1008.9 1009.0 0.0
06/02:30pm 18.0 11.3 3.5 38 6.8 NW 28 39 15 21 1008.9 1009.0 0.0
06/02:00pm 18.5 12.5 3.1 36 7.2 NW 24 35 13 19 1008.6 1008.7 0.0
06/01:30pm 17.9 12.2 2.7 36 7.0 NW 22 37 12 20 1008.5 1008.6 0.0
06/01:00pm 18.0 11.4 2.2 34 7.2 NW 26 37 14 20 1008.5 1008.6 0.0
06/12:43pm 17.8 10.8 1.9 34 7.2 NNW 28 46 15 25 1008.3 1008.4 0.0
06/12:30pm 18.6 13.9 2.9 35 7.3 NW 17 32 9 17 1008.5 1008.6 0.0
06/12:00pm 17.3 10.2 1.4 34 7.1 NW 28 41 15 22 1008.6 1008.7 0.0
06/11:32am 16.9 9.9 2.0 36 6.7 NNW 28 46 15 25 1008.8 1008.9 0.0
06/11:30am 16.6 9.2 1.9 37 6.6 NNW 30 46 16 25 1008.9 1009.0 0.0
06/11:01am 16.5 9.5 2.0 37 6.5 NNW 28 46 15 25 1008.8 1008.9 0.0
06/11:00am 16.4 9.8 2.2 38 6.4 NNW 26 46 14 25 1008.8 1008.9 0.0
06/10:30am 16.2 9.9 4.0 44 5.7 NW 26 43 14 23 1008.6 1008.7 0.0
06/10:01am 15.5 8.5 4.1 46 5.3 NW 30 50 16 27 1008.4 1008.5 0.0
06/10:00am 15.5 8.5 4.1 46 5.3 NW 30 44 16 24 1008.4 1008.5 0.0
06/09:53am 15.5 8.9 4.4 47 5.2 NW 28 46 15 25 1008.4 1008.5 0.0
06/09:30am 15.0 8.6 5.1 51 4.7 NW 28 44 15 24 1008.2 1008.3 0.0
06/09:00am 14.5 8.0 4.9 52 4.5 NW 28 52 15 28 1008.0 1008.1 2.2
06/08:30am 13.7 6.4 4.7 54 4.2 NW 32 50 17 27 1007.8 1007.9 2.2
06/08:01am 13.5 5.9 4.1 53 4.3 NW 33 52 18 28 1007.2 1007.3 2.2
06/08:00am 13.4 5.5 4.3 54 4.2 NW 35 52 19 28 1007.2 1007.3 2.2
06/07:33am 13.4 7.1 5.6 59 3.7 NW 28 48 15 26 1007.0 1007.1 2.2
06/07:30am 13.4 6.6 5.3 58 3.8 NW 30 44 16 24 1007.0 1007.1 2.2
06/07:02am 13.5 7.0 6.4 62 3.4 NW 30 50 16 27 1006.8 1006.9 2.2
06/07:00am 13.6 7.4 6.3 61 3.5 NW 28 44 15 24 1006.8 1006.9 2.2
06/06:30am 13.9 8.4 7.4 65 3.2 NW 26 41 14 22 1006.4 1006.5 2.2
06/06:00am 13.9 8.9 8.1 68 2.9 NNW 24 32 13 17 1005.8 1005.9 2.2
06/05:30am 13.9 9.0 8.3 69 2.8 NW 24 44 13 24 1005.3 1005.4 2.2
06/05:00am 13.9 11.2 8.8 71 2.6 NW 13 28 7 15 1004.5 1004.6 2.2
06/04:30am 14.4 11.6 10.0 75 2.3 NW 15 22 8 12 1004.5 1004.6 2.2
06/04:00am 14.9 11.6 9.7 71 2.7 NW 17 26 9 14 1004.1 1004.2 2.2
06/03:30am 14.4 10.7 10.2 76 2.2 NW 20 28 11 15 1003.6 1003.7 2.2
06/03:00am 14.3 10.3 10.5 78 2.0 NW 22 33 12 18 1003.3 1003.4 2.2
06/02:32am 14.8 9.6 10.2 74 2.4 NW 28 46 15 25 1003.2 1003.3 2.2
06/02:30am 15.0 10.1 9.8 71 2.7 NW 26 46 14 25 1003.3 1003.4 2.2
06/02:00am 14.5 9.4 10.7 78 2.0 NW 28 46 15 25 1002.6 1002.7 2.2
06/01:30am 15.2 8.4 10.7 74 2.4 NW 37 61 20 33 1002.7 1002.8 1.4
06/01:01am 16.0 9.2 10.8 71 2.8 NW 37 59 20 32 1002.9 1003.0 0.4
06/01:00am 15.8 9.1 11.0 73 2.6 NW 37 54 20 29 1002.9 1003.0 0.4
06/12:30am 17.6 11.1 9.0 57 4.5 NW 33 57 18 31 1001.9 1001.9 0.0
06/12:00am 18.6 11.0 7.4 48 5.7 NW 37 57 20 31 1001.5 1001.5 0.0
 
Date/Time
EST
Tmp

°C
App
Tmp
°C
Dew
Point
°C
Rel
Hum
%
Delta-T

°C
Wind Press
QNH
hPa
Press
MSL
hPa
Rain
since
9 am
mm
Dir
 
Spd
km/h
Gust
km/h
Spd
kts
Gust
kts
05/11:30pm 18.5 10.1 7.3 48 5.7 NW 41 65 22 35 1001.5 1001.5 0.0
05/11:00pm 18.3 9.8 6.8 47 5.8 NW 41 61 22 33 1001.5 1001.5 0.0
05/10:34pm 17.9 10.6 7.0 49 5.5 NNW 35 54 19 29 1001.8 1001.8 0.0
05/10:30pm 17.8 10.5 7.1 49 5.4 NNW 35 50 19 27 1001.9 1001.9 0.0
05/10:02pm 17.8 10.5 7.1 49 5.4 NNW 35 54 19 29 1001.9 1001.9 0.0
05/10:00pm 17.8 10.5 7.1 49 5.4 NNW 35 52 19 28 1001.9 1001.9 0.0
05/09:45pm 17.8 10.8 6.8 48 5.5 NNW 33 54 18 29 1002.0 1002.0 0.0
05/09:30pm 17.8 10.8 6.8 48 5.5 NNW 33 48 18 26 1002.1 1002.2 0.0
05/09:07pm 18.1 9.9 6.7 47 5.7 NNW 39 59 21 32 1002.3 1002.4 0.0
05/09:00pm 18.2 10.4 6.6 46 5.8 NNW 37 54 20 29 1002.4 1002.5 0.0
05/08:30pm 18.3 11.5 6.8 47 5.8 NNW 32 50 17 27 1002.4 1002.5 0.0
05/08:00pm 18.4 12.1 7.2 48 5.7 NNW 30 50 16 27 1002.7 1002.8 0.0
05/07:56pm 18.3 12.0 7.3 48 5.6 NNW 30 50 16 27 1002.7 1002.8 0.0
05/07:30pm 18.3 12.1 7.8 50 5.4 NNW 30 44 16 24 1002.9 1003.0 0.0
05/07:00pm 17.8 13.8 9.0 56 4.6 NW 20 35 11 19 1002.8 1002.9 0.0
05/06:34pm 17.8 12.3 9.0 56 4.6 NW 28 46 15 25 1002.8 1002.9 0.0
05/06:30pm 17.6 12.9 9.2 58 4.4 NW 24 41 13 22 1002.8 1002.9 0.0
05/06:00pm 18.7 11.7 8.3 50 5.4 NW 35 57 19 31 1002.7 1002.8 0.0
05/05:30pm 19.4 11.7 7.3 45 6.2 NNW 37 69 20 37 1002.2 1002.3 0.0
05/05:13pm 19.5 12.2 7.2 45 6.3 NNW 35 57 19 31 1002.1 1002.2 0.0
05/05:00pm 19.4 12.2 7.5 46 6.1 NNW 35 50 19 27 1002.1 1002.2 0.0
05/04:30pm 19.8 12.6 7.6 45 6.3 NNW 35 57 19 31 1002.2 1002.3 0.0
05/04:01pm 20.4 12.7 7.2 42 6.7 NNW 37 56 20 30 1002.3 1002.4 0.0
05/04:00pm 20.4 12.3 7.2 42 6.8 NNW 39 56 21 30 1002.2 1002.3 0.0
05/03:30pm 20.6 12.5 7.2 42 6.9 NNW 39 61 21 33 1002.1 1002.2 0.0
05/03:00pm 20.9 12.9 7.4 41 7.0 NNW 39 61 21 33 1002.3 1002.4 0.0
05/02:30pm 21.2 14.4 7.5 41 7.1 NNW 33 59 18 32 1002.6 1002.7 0.0
05/02:07pm 21.1 14.9 7.9 42 6.9 NNW 30 48 16 26 1002.9 1003.0 0.0
05/02:00pm 20.8 14.6 8.0 43 6.7 NNW 30 43 16 23 1003.0 1003.1 0.0
05/01:30pm 20.4 14.3 8.4 46 6.3 NNW 30 48 16 26 1003.2 1003.3 0.0
05/01:03pm 20.1 14.4 8.2 46 6.2 NNW 28 46 15 25 1003.6 1003.7 0.0
05/01:00pm 20.1 14.4 8.5 47 6.1 NNW 28 41 15 22 1003.7 1003.8 0.0
05/12:30pm 19.8 15.4 8.8 49 5.8 NNW 22 35 12 19 1004.6 1004.7 0.0
05/12:00pm 19.5 14.2 8.4 48 5.8 NNW 26 44 14 24 1005.0 1005.1 0.0
05/11:30am 19.3 13.1 7.9 47 5.9 N 30 52 16 28 1005.2 1005.3 0.0
05/11:28am 19.2 13.4 8.0 48 5.8 N 28 52 15 28 1005.2 1005.3 0.0
05/11:00am 19.3 14.7 8.1 48 5.8 NNW 22 41 12 22 1005.5 1005.6 0.0
05/10:30am 18.4 13.0 7.9 50 5.4 NNW 26 37 14 20 1006.3 1006.4 0.0
05/10:00am 17.8 13.2 8.1 53 5.0 NNW 22 32 12 17 1006.3 1006.4 0.0
05/09:30am 16.7 14.8 9.2 61 3.9 NW 9 17 5 9 1006.4 1006.5 0.0
05/09:00am 17.1 12.9 7.4 53 4.9 N 19 33 10 18 1006.4 1006.5 0.0
05/08:30am 16.3 12.8 7.3 55 4.5 N 15 22 8 12 1006.6 1006.7 0.0
05/08:00am 16.5 12.5 6.8 52 4.8 N 17 30 9 16 1006.2 1006.3 0.0
05/07:30am 16.4 12.3 6.4 51 4.9 N 17 28 9 15 1005.7 1005.8 0.0
05/07:00am 16.0 12.0 6.7 54 4.6 NNW 17 28 9 15 1005.8 1005.9 0.0
05/06:30am 15.9 11.9 6.5 53 4.6 NNW 17 24 9 13 1005.6 1005.7 0.0
05/06:00am 15.9 10.9 6.3 53 4.7 N 22 35 12 19 1005.3 1005.4 0.0
05/05:30am 15.8 10.7 6.2 53 4.7 NNW 22 37 12 20 1005.0 1005.1 0.0
05/05:00am 15.7 11.0 6.0 52 4.7 N 20 32 11 17 1005.1 1005.2 0.0
05/04:30am 15.8 10.2 5.6 50 4.9 N 24 39 13 21 1004.5 1004.6 0.0
05/04:00am 15.6 10.1 5.9 52 4.7 N 24 37 13 20 1004.3 1004.4 0.0
05/03:30am 15.6 8.9 5.6 51 4.8 NNW 30 39 16 21 1004.5 1004.6 0.0
05/03:00am 15.2 8.9 5.9 54 4.5 NNW 28 43 15 23 1004.1 1004.2 0.0
05/02:30am 15.1 8.8 5.7 53 4.5 NNW 28 50 15 27 1004.2 1004.3 0.0
05/02:00am 15.1 8.4 5.5 52 4.6 N 30 54 16 29 1004.2 1004.3 0.0
05/01:30am 14.9 8.5 5.2 52 4.6 N 28 46 15 25 1004.3 1004.4 0.0
05/01:02am 14.7 7.9 5.2 53 4.5 N 30 52 16 28 1004.2 1004.3 0.0
05/01:00am 14.7 7.9 5.2 53 4.5 N 30 46 16 25 1004.3 1004.4 0.0
05/12:33am 14.6 7.8 5.1 53 4.5 N 30 48 16 26 1004.5 1004.6 0.0
05/12:30am 14.6 7.4 4.8 52 4.6 N 32 48 17 26 1004.5 1004.6 0.0
05/12:20am 14.4 7.9 4.8 52 4.5 N 28 52 15 28 1004.5 1004.6 0.0
05/12:00am 14.3 8.6 4.7 52 4.5 N 24 37 13 20 1004.7 1004.8 0.0
 
Date/Time
EST
Tmp

°C
App
Tmp
°C
Dew
Point
°C
Rel
Hum
%
Delta-T

°C
Wind Press
QNH
hPa
Press
MSL
hPa
Rain
since
9 am
mm
Dir
 
Spd
km/h
Gust
km/h
Spd
kts
Gust
kts
04/11:34pm 14.2 7.7 4.5 52 4.5 N 28 46 15 25 1004.9 1005.0 0.0
04/11:30pm 14.1 8.0 4.7 53 4.4 N 26 39 14 21 1004.9 1005.0 0.0
04/11:00pm 13.7 7.5 4.4 53 4.3 NNW 26 39 14 21 1005.1 1005.2 0.0
04/10:30pm 13.8 6.7 3.7 50 4.6 N 30 48 16 26 1005.1 1005.2 0.0
04/10:15pm 13.7 7.0 3.6 50 4.6 NNW 28 48 15 26 1005.3 1005.4 0.0
04/10:00pm 13.6 7.2 3.1 49 4.7 N 26 43 14 23 1005.5 1005.6 0.0
04/09:30pm 13.5 6.7 3.3 50 4.6 N 28 44 15 24 1005.5 1005.6 0.0
04/09:10pm 13.3 6.6 3.6 52 4.4 N 28 46 15 25 1005.5 1005.6 0.0
04/09:00pm 13.3 6.1 3.0 49 4.6 N 30 46 16 25 1005.6 1005.7 0.0
04/08:30pm 13.3 6.4 2.7 48 4.7 N 28 46 15 25 1005.5 1005.6 0.0
04/08:05pm 13.1 5.8 2.4 48 4.7 N 30 48 16 26 1005.5 1005.6 0.0
04/08:00pm 13.2 5.5 2.3 47 4.8 NNW 32 48 17 26 1005.7 1005.8 0.0
04/07:49pm 13.2 5.4 2.0 46 4.9 N 32 50 17 27 1005.5 1005.6 0.0
04/07:30pm 13.1 6.9 2.1 47 4.8 NNW 24 35 13 19 1005.8 1005.9 0.0
04/07:06pm 13.1 6.1 1.8 46 4.9 N 28 46 15 25 1005.8 1005.9 0.0
04/07:00pm 12.9 6.0 2.4 49 4.6 N 28 39 15 21 1005.5 1005.6 0.0
04/06:42pm 13.0 6.1 2.3 48 4.7 NNW 28 50 15 27 1005.7 1005.8 0.0
04/06:30pm 12.7 6.5 2.2 49 4.6 NNW 24 35 13 19 1005.7 1005.8 0.0
04/06:00pm 12.5 7.2 2.8 51 4.3 N 20 30 11 16 1005.6 1005.7 0.0
04/05:30pm 13.2 7.3 2.0 46 4.9 NNW 22 35 12 19 1005.7 1005.8 0.0
04/05:00pm 13.2 7.3 2.0 46 4.9 NNW 22 43 12 23 1005.4 1005.5 0.0
04/04:30pm 13.3 7.0 1.8 45 5.0 NNW 24 37 13 20 1005.3 1005.4 0.0
04/04:00pm 13.3 6.6 1.2 43 5.2 NNW 26 41 14 22 1005.2 1005.3 0.0
04/03:30pm 13.4 6.0 2.0 46 5.0 NNW 30 52 16 28 1005.4 1005.5 0.0
04/03:01pm 13.5 6.4 1.2 43 5.3 NW 28 48 15 26 1005.3 1005.4 0.0
04/03:00pm 13.6 6.9 1.3 43 5.3 NW 26 41 14 22 1005.3 1005.4 0.0
04/02:30pm 13.7 7.1 1.8 44 5.2 NNW 26 37 14 20 1005.5 1005.6 0.0
04/02:00pm 14.3 8.0 1.8 42 5.5 NNW 24 44 13 24 1005.0 1005.1 0.0
04/01:30pm 13.3 7.8 1.8 45 5.0 NNW 20 37 11 20 1005.4 1005.5 0.0
04/01:00pm 12.8 8.4 2.9 51 4.4 NW 15 28 8 15 1005.7 1005.8 0.0
04/12:30pm 12.6 7.7 2.0 48 4.6 NW 17 30 9 16 1005.9 1006.0 0.0
04/12:00pm 12.9 7.5 1.2 45 5.0 N 19 41 10 22 1006.0 1006.1 0.0
04/11:30am 12.1 7.0 1.0 46 4.7 NNW 17 28 9 15 1005.8 1005.9 0.0
04/11:00am 11.3 5.9 1.1 49 4.3 N 19 37 10 20 1006.1 1006.2 0.0
04/10:30am 11.0 5.0 0.9 49 4.2 N 22 32 12 17 1005.9 1006.0 0.0
04/10:00am 10.7 5.0 0.8 50 4.1 N 20 32 11 17 1005.8 1005.9 0.0
04/09:30am 9.8 4.9 1.7 57 3.4 NNE 17 24 9 13 1005.3 1005.4 0.0
04/09:00am 8.4 3.0 1.3 61 2.9 NNE 19 24 10 13 1005.1 1005.2 6.4
04/08:30am 8.0 2.1 1.7 64 2.6 N 22 37 12 20 1004.6 1004.7 6.4
04/08:00am 8.4 1.3 1.1 60 3.0 NNW 28 54 15 29 1004.0 1004.1 6.4
04/07:30am 7.9 0.3 0.7 60 2.9 NW 30 48 16 26 1003.7 1003.8 6.4
04/07:27am 7.4 0.3 1.2 65 2.5 NW 28 48 15 26 1003.6 1003.7 6.4
04/07:00am 6.9 -0.9 2.0 71 2.0 NW 32 48 17 26 1003.1 1003.2 6.4

Latest Capital City Observations: Canberra | Sydney | Melbourne | Brisbane | Adelaide | Perth | Hobart | Darwin

Other Formats:

Comma delimited format used in spreadsheet applications
http://www.bom.gov.au/fwo/IDT60901/IDT60901.94970.axf

JavaScript Object Notation format (JSON) in row-major order
http://www.bom.gov.au/fwo/IDT60901/IDT60901.94970.json